createdAt,value
2022-10-06T00:01:14.770Z,100671.84
2022-10-06T00:03:43.048Z,100681.22
2022-10-06T00:06:12.565Z,100664.34
2022-10-06T00:08:42.439Z,100678.63
2022-10-06T00:11:13.611Z,100679.50
2022-10-06T00:13:41.665Z,100679.56
2022-10-06T00:16:12.795Z,100677.78
2022-10-06T00:18:40.696Z,100684.38
2022-10-06T00:21:08.489Z,100684.44
2022-10-06T00:23:36.540Z,100686.94
2022-10-06T00:26:04.584Z,100681.88
2022-10-06T00:28:34.151Z,100686.09
2022-10-06T00:31:02.959Z,100685.16
2022-10-06T00:33:30.844Z,100677.72
2022-10-06T00:36:00.823Z,100678.09
2022-10-06T00:38:29.082Z,100679.00
2022-10-06T00:40:57.740Z,100675.06
2022-10-06T00:43:46.215Z,100684.81
2022-10-06T00:46:18.900Z,100680.78
2022-10-06T00:48:51.393Z,100687.56
2022-10-06T00:51:22.094Z,100690.38
2022-10-06T00:53:50.223Z,100682.09
2022-10-06T00:56:18.100Z,100684.63
2022-10-06T00:58:47.268Z,100684.63
2022-10-06T01:01:15.155Z,100686.16
2022-10-06T01:03:48.352Z,100685.94
2022-10-06T01:06:16.185Z,100677.38
2022-10-06T01:08:44.052Z,100688.16
2022-10-06T01:11:14.122Z,100676.19
2022-10-06T01:13:44.520Z,100679.88
2022-10-06T01:16:19.275Z,100685.41
2022-10-06T01:18:49.464Z,100679.56
2022-10-06T01:21:26.153Z,100685.88
2022-10-06T01:23:57.148Z,100680.22
2022-10-06T01:26:27.347Z,100688.31
2022-10-06T01:28:55.617Z,100690.50
2022-10-06T01:31:23.876Z,100682.06
2022-10-06T01:33:52.996Z,100672.69
2022-10-06T01:36:22.335Z,100676.91
2022-10-06T01:38:52.358Z,100678.50
2022-10-06T01:41:22.558Z,100675.09
2022-10-06T01:43:50.916Z,100664.97
2022-10-06T01:46:18.795Z,100669.84
2022-10-06T01:48:46.648Z,100663.00
2022-10-06T01:51:17.209Z,100665.50
2022-10-06T01:53:45.051Z,100657.72
2022-10-06T01:56:13.706Z,100667.75
2022-10-06T01:58:43.551Z,100667.81
2022-10-06T02:01:12.119Z,100660.44
2022-10-06T02:03:41.132Z,100667.66
2022-10-06T02:06:10.514Z,100663.59
2022-10-06T02:08:38.960Z,100652.31
2022-10-06T02:11:10.082Z,100665.69
2022-10-06T02:13:43.256Z,100665.84
2022-10-06T02:16:12.463Z,100671.03
2022-10-06T02:18:42.050Z,100676.97
2022-10-06T02:21:15.202Z,100669.63
2022-10-06T02:23:43.035Z,100665.34
2022-10-06T02:26:11.710Z,100667.81
2022-10-06T02:28:39.539Z,100664.47
2022-10-06T02:31:12.339Z,100675.97
2022-10-06T02:33:41.722Z,100681.69
2022-10-06T02:36:12.909Z,100674.84
2022-10-06T02:38:41.655Z,100691.03
2022-10-06T02:41:11.912Z,100676.47
2022-10-06T02:43:40.284Z,100685.91
2022-10-06T02:46:12.460Z,100689.91
2022-10-06T02:48:45.850Z,100693.72
2022-10-06T02:51:16.020Z,100673.47
2022-10-06T02:53:46.412Z,100702.78
2022-10-06T02:56:16.906Z,100698.72
2022-10-06T02:58:45.671Z,100687.69
2022-10-06T03:01:23.893Z,100693.22
2022-10-06T03:03:53.436Z,100700.66
2022-10-06T03:06:22.813Z,100701.63
2022-10-06T03:09:09.490Z,100694.13
2022-10-06T03:11:42.510Z,100703.72
2022-10-06T03:14:14.817Z,100700.31
2022-10-06T03:16:47.103Z,100678.19
2022-10-06T03:19:21.229Z,100696.06
2022-10-06T03:21:49.820Z,100691.63
2022-10-06T03:24:18.290Z,100694.72
2022-10-06T03:26:50.619Z,100686.22
2022-10-06T03:29:20.178Z,100677.94
2022-10-06T03:31:54.351Z,100674.47
2022-10-06T03:34:22.346Z,100670.84
2022-10-06T03:36:50.427Z,100682.69
2022-10-06T03:39:21.917Z,100677.41
2022-10-06T03:41:50.829Z,100688.28
2022-10-06T03:44:18.850Z,100683.34
2022-10-06T03:46:46.725Z,100690.97
2022-10-06T03:49:15.949Z,100680.13
2022-10-06T03:51:43.889Z,100681.69
2022-10-06T03:54:20.605Z,100692.41
2022-10-06T03:56:50.927Z,100684.53
2022-10-06T03:59:19.526Z,100688.66
2022-10-06T04:01:49.840Z,100691.66
2022-10-06T04:04:23.703Z,100699.25
2022-10-06T04:06:55.933Z,100701.28
2022-10-06T04:09:23.769Z,100705.25
2022-10-06T04:11:52.717Z,100704.16
2022-10-06T04:14:21.755Z,100696.94
2022-10-06T04:16:51.030Z,100707.28
2022-10-06T04:19:25.320Z,100707.00
2022-10-06T04:21:55.710Z,100707.28
2022-10-06T04:24:25.507Z,100712.34
2022-10-06T04:27:13.857Z,100711.50
2022-10-06T04:29:42.243Z,100702.53
2022-10-06T04:32:10.844Z,100710.25
2022-10-06T04:34:40.139Z,100696.59
2022-10-06T04:37:07.939Z,100708.53
2022-10-06T04:39:37.724Z,100708.00
2022-10-06T04:42:06.748Z,100709.22
2022-10-06T04:44:34.617Z,100711.81
2022-10-06T04:47:04.285Z,100707.06
2022-10-06T04:49:32.679Z,100708.75
2022-10-06T04:52:01.990Z,100710.41
2022-10-06T04:54:34.062Z,100707.69
2022-10-06T04:57:03.860Z,100714.16
2022-10-06T04:59:50.021Z,100705.91
2022-10-06T05:02:19.152Z,100707.94
2022-10-06T05:04:49.101Z,100710.59
2022-10-06T05:07:19.322Z,100715.88
2022-10-06T05:09:47.618Z,100716.06
2022-10-06T05:12:15.499Z,100698.00
2022-10-06T05:14:45.432Z,100726.06
2022-10-06T05:17:13.288Z,100722.81
2022-10-06T05:19:41.261Z,100722.25
2022-10-06T05:22:09.403Z,100725.00
2022-10-06T05:24:38.918Z,100720.28
2022-10-06T05:27:06.761Z,100721.38
2022-10-06T05:29:36.170Z,100719.78
2022-10-06T05:32:06.308Z,100733.50
2022-10-06T05:34:35.463Z,100742.59
2022-10-06T05:37:03.286Z,100742.75
2022-10-06T05:39:31.296Z,100743.75
2022-10-06T05:42:01.097Z,100744.22
2022-10-06T05:44:28.980Z,100749.44
2022-10-06T05:47:00.463Z,100754.44
2022-10-06T05:49:29.352Z,100761.34
2022-10-06T05:52:01.202Z,100757.03
2022-10-06T05:54:32.133Z,100758.81
2022-10-06T05:57:01.316Z,100766.00
2022-10-06T05:59:31.163Z,100770.47
2022-10-06T06:02:00.607Z,100777.56
2022-10-06T06:04:39.257Z,100774.56
2022-10-06T06:07:07.300Z,100769.56
2022-10-06T06:09:35.165Z,100771.34
2022-10-06T06:12:06.267Z,100781.75
2022-10-06T06:15:01.213Z,100785.97
2022-10-06T06:17:35.286Z,100780.13
2022-10-06T06:20:06.516Z,100787.13
2022-10-06T06:22:35.812Z,100786.59
2022-10-06T06:25:05.707Z,100796.75
2022-10-06T06:27:35.629Z,100794.47
2022-10-06T06:30:04.452Z,100807.25
2022-10-06T06:32:32.632Z,100782.59
2022-10-06T06:35:00.471Z,100809.19
2022-10-06T06:37:31.451Z,100812.59
2022-10-06T06:39:59.632Z,100806.53
2022-10-06T06:42:27.816Z,100827.91
2022-10-06T06:45:02.524Z,100828.34
2022-10-06T06:47:40.279Z,100832.31
2022-10-06T06:50:10.398Z,100829.44
2022-10-06T06:52:41.855Z,100827.06
2022-10-06T06:55:12.380Z,100831.75
2022-10-06T06:57:42.365Z,100826.91
2022-10-06T07:00:13.109Z,100827.34
2022-10-06T07:02:41.471Z,100828.72
2022-10-06T07:05:11.476Z,100830.03
2022-10-06T07:07:39.877Z,100831.19
2022-10-06T07:10:09.597Z,100835.22
2022-10-06T07:12:38.360Z,100831.00
2022-10-06T07:15:24.950Z,100827.72
2022-10-06T07:18:13.351Z,100838.91
2022-10-06T07:20:58.633Z,100836.72
2022-10-06T07:23:43.948Z,100846.81
2022-10-06T07:26:16.381Z,100845.41
2022-10-06T07:28:45.276Z,100837.16
2022-10-06T07:31:17.595Z,100848.09
2022-10-06T07:33:46.870Z,100850.97
2022-10-06T07:36:16.793Z,100853.91
2022-10-06T07:38:47.337Z,100855.19
2022-10-06T07:41:20.349Z,100855.66
2022-10-06T07:43:53.828Z,100854.50
2022-10-06T07:46:22.540Z,100856.09
2022-10-06T07:49:06.214Z,100862.56
2022-10-06T07:51:34.251Z,100858.38
2022-10-06T07:54:03.695Z,100854.22
2022-10-06T07:56:36.270Z,100861.09
2022-10-06T07:59:05.202Z,100853.69
2022-10-06T08:01:33.480Z,100847.09
2022-10-06T08:04:02.636Z,100858.09
2022-10-06T08:06:31.924Z,100853.09
2022-10-06T08:09:00.041Z,100856.56
2022-10-06T08:11:28.088Z,100851.59
2022-10-06T08:13:56.058Z,100852.56
2022-10-06T08:16:32.084Z,100860.03
2022-10-06T08:19:00.632Z,100855.78
2022-10-06T08:21:34.313Z,100859.09
2022-10-06T08:24:03.117Z,100862.47
2022-10-06T08:26:33.173Z,100862.25
2022-10-06T08:29:03.161Z,100868.31
2022-10-06T08:31:32.403Z,100859.09
2022-10-06T08:34:01.361Z,100871.16
2022-10-06T08:36:32.413Z,100869.69
2022-10-06T08:39:00.804Z,100866.59
2022-10-06T08:41:39.723Z,100858.38
2022-10-06T08:44:21.853Z,100865.56
2022-10-06T08:46:56.517Z,100878.53
2022-10-06T08:49:27.325Z,100878.00
2022-10-06T08:52:05.645Z,100891.81
2022-10-06T08:54:42.108Z,100882.22
2022-10-06T08:57:19.555Z,100876.63
2022-10-06T08:59:53.578Z,100878.84
2022-10-06T09:02:30.194Z,100883.38
2022-10-06T09:05:01.846Z,100882.75
2022-10-06T09:07:43.750Z,100877.06
2022-10-06T09:10:29.578Z,100882.22
2022-10-06T09:13:04.814Z,100878.97
2022-10-06T09:15:39.211Z,100881.66
2022-10-06T09:18:13.324Z,100869.22
2022-10-06T09:20:47.358Z,100881.16
2022-10-06T09:23:39.019Z,100871.97
2022-10-06T09:26:11.974Z,100881.28
2022-10-06T09:28:40.210Z,100874.75
2022-10-06T09:31:24.527Z,100872.28
2022-10-06T09:33:55.321Z,100875.94
2022-10-06T09:36:24.131Z,100872.66
2022-10-06T09:38:55.377Z,100874.53
2022-10-06T09:41:27.809Z,100873.91
2022-10-06T09:43:58.658Z,100874.00
2022-10-06T09:46:32.681Z,100872.47
2022-10-06T09:49:08.316Z,100863.13
2022-10-06T09:51:38.021Z,100861.38
2022-10-06T09:54:14.293Z,100876.75
2022-10-06T09:56:44.774Z,100883.69
2022-10-06T09:59:21.272Z,100871.03
2022-10-06T10:01:53.608Z,100872.00
2022-10-06T10:04:26.784Z,100882.88
2022-10-06T10:06:54.873Z,100887.31
2022-10-06T10:09:28.849Z,100882.31
2022-10-06T10:12:27.895Z,100876.50
2022-10-06T10:14:58.915Z,100877.50
2022-10-06T10:17:49.036Z,100876.69
2022-10-06T10:20:36.369Z,100870.06
2022-10-06T10:23:07.720Z,100882.69
2022-10-06T10:26:07.940Z,100878.75
2022-10-06T10:29:17.178Z,100889.91
2022-10-06T10:32:02.428Z,100890.66
2022-10-06T10:34:47.525Z,100886.56
2022-10-06T10:37:18.248Z,100890.00
2022-10-06T10:39:51.169Z,100884.97
2022-10-06T10:42:28.440Z,100878.38
2022-10-06T10:45:01.157Z,100881.84
2022-10-06T10:47:32.425Z,100881.06
2022-10-06T10:50:09.453Z,100879.44
2022-10-06T10:52:41.407Z,100882.88
2022-10-06T10:55:20.888Z,100873.00
2022-10-06T10:57:51.678Z,100864.75
2022-10-06T11:00:22.891Z,100868.25
2022-10-06T11:02:53.650Z,100864.13
2022-10-06T11:05:36.881Z,100857.56
2022-10-06T11:08:11.338Z,100860.13
2022-10-06T11:10:47.809Z,100866.22
2022-10-06T11:13:24.820Z,100864.66
2022-10-06T11:16:11.995Z,100864.63
2022-10-06T11:19:05.721Z,100860.56
2022-10-06T11:21:37.662Z,100855.72
2022-10-06T11:24:15.659Z,100852.50
2022-10-06T11:26:58.045Z,100854.22
2022-10-06T11:29:38.012Z,100859.47
2022-10-06T11:32:21.160Z,100856.22
2022-10-06T11:34:49.542Z,100851.31
2022-10-06T11:37:24.916Z,100854.00
2022-10-06T11:40:01.007Z,100846.50
2022-10-06T11:42:35.202Z,100845.69
2022-10-06T11:45:06.759Z,100837.34
2022-10-06T11:47:47.174Z,100841.66
2022-10-06T11:50:34.171Z,100834.03
2022-10-06T11:53:01.996Z,100834.97
2022-10-06T11:55:30.735Z,100836.75
2022-10-06T12:01:05.600Z,100839.63
2022-10-06T12:04:14.031Z,100833.03
2022-10-06T12:07:04.789Z,100842.53
2022-10-06T12:09:52.793Z,100841.06
2022-10-06T12:12:44.032Z,100832.19
2022-10-06T12:18:50.120Z,100831.78
2022-10-06T12:21:32.345Z,100811.56
2022-10-06T12:24:07.620Z,100828.22
2022-10-06T12:26:49.311Z,100835.16
2022-10-06T12:29:29.353Z,100829.41
2022-10-06T12:32:06.325Z,100832.94
2022-10-06T12:35:03.979Z,100830.69
2022-10-06T12:37:54.503Z,100831.66
2022-10-06T12:40:49.028Z,100824.34
2022-10-06T12:43:46.534Z,100822.22
2022-10-06T12:46:22.016Z,100824.16
2022-10-06T12:49:08.586Z,100814.25
2022-10-06T12:51:40.740Z,100815.41
2022-10-06T12:54:17.285Z,100800.31
2022-10-06T12:56:58.585Z,100810.72
2022-10-06T12:59:28.599Z,100818.41
2022-10-06T13:01:59.769Z,100819.38
2022-10-06T13:04:37.531Z,100820.28
2022-10-06T13:07:12.676Z,100822.81
2022-10-06T13:09:41.837Z,100813.38
2022-10-06T13:12:25.323Z,100814.91
2022-10-06T13:15:18.815Z,100818.03
2022-10-06T13:17:50.387Z,100818.84
2022-10-06T13:20:32.115Z,100822.25
2022-10-06T13:23:03.061Z,100817.41
2022-10-06T13:25:37.125Z,100814.22
2022-10-06T13:28:05.085Z,100822.03
2022-10-06T13:30:38.409Z,100820.41
2022-10-06T13:33:09.038Z,100825.72
2022-10-06T13:35:37.339Z,100820.72
2022-10-06T13:38:06.570Z,100824.13
2022-10-06T13:40:50.372Z,100813.97
2022-10-06T13:43:20.213Z,100825.09
2022-10-06T13:45:49.327Z,100831.06
2022-10-06T13:48:22.162Z,100826.03
2022-10-06T13:50:50.406Z,100829.50
2022-10-06T13:53:30.399Z,100829.59
2022-10-06T13:55:59.453Z,100823.78
2022-10-06T13:58:30.069Z,100817.06
2022-10-06T14:01:00.815Z,100812.03
2022-10-06T14:06:09.579Z,100812.91
2022-10-06T14:08:39.400Z,100814.59
2022-10-06T14:11:09.445Z,100817.16
2022-10-06T14:13:45.389Z,100807.00
2022-10-06T14:16:21.742Z,100812.09
2022-10-06T14:21:38.644Z,100816.31
2022-10-06T14:24:23.417Z,100794.25
2022-10-06T14:26:52.076Z,100816.31
2022-10-06T14:29:20.654Z,100815.47
2022-10-06T14:31:49.446Z,100812.06
2022-10-06T14:34:19.353Z,100832.44
2022-10-06T14:36:51.254Z,100823.94
2022-10-06T14:39:20.472Z,100818.00
2022-10-06T14:41:48.405Z,100828.94
2022-10-06T14:44:16.319Z,100812.75
2022-10-06T14:46:48.022Z,100824.63
2022-10-06T14:49:16.172Z,100819.44
2022-10-06T14:51:45.278Z,100830.41
2022-10-06T14:54:13.677Z,100824.41
2022-10-06T14:56:43.367Z,100832.84
2022-10-06T14:59:16.765Z,100828.63
2022-10-06T15:01:45.671Z,100824.41
2022-10-06T15:04:15.309Z,100833.81
2022-10-06T15:07:01.423Z,100832.09
2022-10-06T15:09:30.989Z,100827.81
2022-10-06T15:12:00.917Z,100817.63
2022-10-06T15:14:29.467Z,100829.47
2022-10-06T15:17:00.134Z,100823.53
2022-10-06T15:19:28.165Z,100827.72
2022-10-06T15:21:56.209Z,100829.41
2022-10-06T15:24:24.121Z,100829.41
2022-10-06T15:27:09.415Z,100832.00
2022-10-06T15:29:38.709Z,100831.25
2022-10-06T15:32:07.230Z,100841.38
2022-10-06T15:34:36.952Z,100827.69
2022-10-06T15:37:05.146Z,100834.47
2022-10-06T15:39:36.348Z,100836.88
2022-10-06T15:42:05.183Z,100841.78
2022-10-06T15:44:34.972Z,100846.69
2022-10-06T15:47:05.845Z,100844.00
2022-10-06T15:49:38.189Z,100842.16
2022-10-06T15:52:07.292Z,100833.44
2022-10-06T15:54:37.866Z,100859.59
2022-10-06T15:57:08.403Z,100850.97
2022-10-06T15:59:36.904Z,100849.81
2022-10-06T16:02:09.846Z,100865.75
2022-10-06T16:04:55.304Z,100861.38
2022-10-06T16:07:23.592Z,100867.09
2022-10-06T16:09:52.684Z,100859.25
2022-10-06T16:12:21.910Z,100870.09
2022-10-06T16:14:50.387Z,100862.25
2022-10-06T16:17:19.984Z,100867.13
2022-10-06T16:19:48.016Z,100880.44
2022-10-06T16:22:17.939Z,100878.53
2022-10-06T16:24:45.840Z,100874.22
2022-10-06T16:27:14.849Z,100886.81
2022-10-06T16:29:42.732Z,100888.38
2022-10-06T16:32:10.793Z,100885.72
2022-10-06T16:34:40.123Z,100899.91
2022-10-06T16:37:08.165Z,100900.59
2022-10-06T16:39:36.100Z,100900.44
2022-10-06T16:42:04.015Z,100910.41
2022-10-06T16:44:32.055Z,100916.19
2022-10-06T16:47:00.079Z,100917.69
2022-10-06T16:49:28.294Z,100918.38
2022-10-06T16:51:57.516Z,100915.75
2022-10-06T16:54:25.560Z,100929.16
2022-10-06T16:56:58.147Z,100921.44
2022-10-06T16:59:26.868Z,100925.56
2022-10-06T17:01:54.700Z,100922.06
2022-10-06T17:04:24.363Z,100927.09
2022-10-06T17:06:53.614Z,100932.00
2022-10-06T17:09:24.494Z,100925.16
2022-10-06T17:11:53.874Z,100927.59
2022-10-06T17:14:22.369Z,100933.44
2022-10-06T17:16:52.625Z,100936.72
2022-10-06T17:19:22.458Z,100940.03
2022-10-06T17:21:55.587Z,100934.91
2022-10-06T17:24:28.231Z,100939.94
2022-10-06T17:26:57.110Z,100939.88
2022-10-06T17:29:25.816Z,100938.97
2022-10-06T17:31:56.095Z,100924.41
2022-10-06T17:34:29.119Z,100941.31
2022-10-06T17:37:00.235Z,100937.06
2022-10-06T17:39:29.540Z,100944.53
2022-10-06T17:41:57.477Z,100944.47
2022-10-06T17:44:26.922Z,100936.72
2022-10-06T17:46:56.459Z,100950.19
2022-10-06T17:49:25.367Z,100938.25
2022-10-06T17:51:54.731Z,100943.31
2022-10-06T17:54:24.430Z,100947.41
2022-10-06T17:56:55.710Z,100949.03
2022-10-06T17:59:25.161Z,100949.13
2022-10-06T18:01:56.280Z,100960.00
2022-10-06T18:04:25.057Z,100951.56
2022-10-06T18:06:54.546Z,100954.91
2022-10-06T18:09:23.114Z,100949.59
2022-10-06T18:11:54.983Z,100964.00
2022-10-06T18:14:25.855Z,100962.25
2022-10-06T18:16:56.603Z,100957.06
2022-10-06T18:19:29.750Z,100954.41
2022-10-06T18:22:00.150Z,100954.25
2022-10-06T18:24:30.307Z,100965.09
2022-10-06T18:26:59.736Z,100963.34
2022-10-06T18:29:30.833Z,100962.34
2022-10-06T18:32:15.060Z,100964.88
2022-10-06T18:37:34.831Z,100973.34
2022-10-06T18:40:06.137Z,100980.91
2022-10-06T18:42:34.563Z,100975.81
2022-10-06T18:45:21.680Z,100978.31
2022-10-06T18:48:06.999Z,100991.72
2022-10-06T18:50:35.112Z,100986.69
2022-10-06T18:53:04.073Z,100989.16
2022-10-06T18:55:32.170Z,100985.81
2022-10-06T18:58:00.120Z,100990.78
2022-10-06T19:00:29.342Z,100993.19
2022-10-06T19:02:57.133Z,100991.44
2022-10-06T19:05:25.366Z,100992.19
2022-10-06T19:07:53.893Z,100995.53
2022-10-06T19:10:22.290Z,100999.75
2022-10-06T19:12:50.288Z,100998.00
2022-10-06T19:15:21.165Z,100994.63
2022-10-06T19:17:51.145Z,100999.66
2022-10-06T19:20:19.184Z,100995.28
2022-10-06T19:22:47.953Z,101004.59
2022-10-06T19:25:18.648Z,101006.19
2022-10-06T19:27:46.864Z,101006.13
2022-10-06T19:30:14.805Z,100998.47
2022-10-06T19:32:42.728Z,101007.59
2022-10-06T19:35:11.983Z,101005.78
2022-10-06T19:37:40.385Z,101000.69
2022-10-06T19:40:11.086Z,101010.63
2022-10-06T19:42:47.242Z,101005.44
2022-10-06T19:45:15.958Z,101014.75
2022-10-06T19:47:45.216Z,101020.66
2022-10-06T19:50:14.861Z,101015.50
2022-10-06T19:52:43.448Z,101019.69
2022-10-06T19:55:11.312Z,101018.84
2022-10-06T19:57:39.135Z,101020.53
2022-10-06T20:00:08.651Z,101018.03
2022-10-06T20:02:43.738Z,101021.34
2022-10-06T20:05:14.747Z,101026.28
2022-10-06T20:07:44.114Z,101032.13
2022-10-06T20:10:13.163Z,101025.47
2022-10-06T20:12:42.091Z,101027.19
2022-10-06T20:15:10.852Z,101023.72
2022-10-06T20:17:39.263Z,101025.47
2022-10-06T20:20:07.899Z,101028.91
2022-10-06T20:22:37.078Z,101005.91
2022-10-06T20:25:07.080Z,101029.81
2022-10-06T20:27:35.014Z,101028.09
2022-10-06T20:30:03.881Z,101022.06
2022-10-06T20:32:31.704Z,101022.88
2022-10-06T20:35:00.022Z,101022.72
2022-10-06T20:37:27.797Z,101035.19
2022-10-06T20:40:14.943Z,101030.16
2022-10-06T20:42:45.029Z,101036.13
2022-10-06T20:45:12.877Z,101033.56
2022-10-06T20:47:41.071Z,101032.56
2022-10-06T20:50:10.323Z,101035.00
2022-10-06T20:52:38.625Z,101031.38
2022-10-06T20:55:08.969Z,101033.97
2022-10-06T20:57:36.861Z,101032.41
2022-10-06T21:00:05.234Z,101037.56
2022-10-06T21:02:33.231Z,101031.56
2022-10-06T21:05:02.136Z,101030.38
2022-10-06T21:07:29.938Z,101032.59
2022-10-06T21:09:57.739Z,101028.50
2022-10-06T21:12:27.091Z,101027.00
2022-10-06T21:14:56.809Z,101026.22
2022-10-06T21:17:24.716Z,101019.50
2022-10-06T21:19:52.516Z,101033.75
2022-10-06T21:22:20.411Z,101022.72
2022-10-06T21:24:48.172Z,101023.69
2022-10-06T21:27:16.983Z,101023.00
2022-10-06T21:29:46.147Z,101018.06
2022-10-06T21:32:13.983Z,101012.28
2022-10-06T21:34:41.795Z,101014.84
2022-10-06T21:37:10.155Z,101022.50
2022-10-06T21:39:37.918Z,101019.22
2022-10-06T21:42:05.822Z,101018.44
2022-10-06T21:44:33.676Z,101008.19
2022-10-06T21:47:03.348Z,101021.84
2022-10-06T21:49:31.177Z,101013.50
2022-10-06T21:52:03.474Z,101014.19
2022-10-06T21:54:31.657Z,101018.31
2022-10-06T21:56:59.592Z,101006.38
2022-10-06T21:59:27.406Z,101016.47
2022-10-06T22:01:56.674Z,101011.25
2022-10-06T22:04:26.082Z,101009.50
2022-10-06T22:06:53.933Z,101006.13
2022-10-06T22:09:22.159Z,100999.25
2022-10-06T22:11:50.151Z,101006.06
2022-10-06T22:14:19.539Z,101005.00
2022-10-06T22:16:47.470Z,101004.09
2022-10-06T22:19:16.217Z,100993.06
2022-10-06T22:21:47.818Z,100991.41
2022-10-06T22:24:17.960Z,101005.75
2022-10-06T22:26:45.805Z,100992.31
2022-10-06T22:29:15.361Z,100982.75
2022-10-06T22:31:45.727Z,100987.91
2022-10-06T22:34:15.319Z,100988.19
2022-10-06T22:36:44.763Z,100988.97
2022-10-06T22:39:12.597Z,100983.94
2022-10-06T22:41:40.352Z,100971.78
2022-10-06T22:44:08.152Z,100996.47
2022-10-06T22:46:37.651Z,100988.78
2022-10-06T22:49:06.512Z,100987.91
2022-10-06T22:51:34.706Z,100982.03
2022-10-06T22:54:03.918Z,100981.97
2022-10-06T22:56:33.609Z,100979.34
2022-10-06T22:59:01.454Z,100979.28
2022-10-06T23:01:30.329Z,100982.75
2022-10-06T23:03:58.752Z,100991.13
2022-10-06T23:06:26.885Z,100986.88
2022-10-06T23:08:54.690Z,100985.19
2022-10-06T23:11:23.957Z,100986.75
2022-10-06T23:13:53.034Z,100989.22
2022-10-06T23:16:21.877Z,100981.63
2022-10-06T23:18:50.088Z,100978.94
2022-10-06T23:21:21.703Z,100983.13
2022-10-06T23:23:51.435Z,100988.06
2022-10-06T23:26:20.267Z,100987.88
2022-10-06T23:28:52.931Z,100985.84
2022-10-06T23:31:20.919Z,100990.69
2022-10-06T23:33:49.096Z,100986.94
2022-10-06T23:36:17.699Z,100986.00
2022-10-06T23:38:46.292Z,100989.25
2022-10-06T23:41:14.798Z,100990.06
2022-10-06T23:43:42.683Z,100982.56
2022-10-06T23:46:12.303Z,100980.19
2022-10-06T23:48:40.355Z,100982.75
2022-10-06T23:51:10.342Z,100980.34
2022-10-06T23:53:38.751Z,100972.63
2022-10-06T23:56:07.470Z,100972.91
2022-10-06T23:58:35.299Z,100974.47
